Time;durP1;ratioP1;P1;durP2;ratioP2;P2;SDS_P1;SDS_P2;PMS_P1;PMS_P2;Temp;Humidity;BMP_temperature;BMP_pressure;BME280_temperature;BME280_humidity;BME280_pressure;Samples;Min_cycle;Max_cycle;Signal;HPM_P1;HPM_P2
2022/04/13 00:00:43;;;;;;;12.23;9.73;;;;;;;6.00;66.80;101058.69;5076734;28;20064;-73
2022/04/13 00:03:09;;;;;;;18.25;8.30;;;;;;;6.17;66.19;101057.44;5080988;28;20043;-73
2022/04/13 00:05:34;;;;;;;17.05;10.18;;;;;;;6.44;65.09;101054.72;5081006;28;20128;-73
2022/04/13 00:08:06;;;;;;;13.90;9.50;;;;;;;6.50;65.87;101061.81;5079248;28;20113;-74
2022/04/13 00:10:33;;;;;;;14.73;10.13;;;;;;;6.61;65.67;101067.31;5082018;28;20554;-74
2022/04/13 00:12:59;;;;;;;14.50;10.10;;;;;;;6.32;66.24;101056.97;5082753;28;20046;-76
2022/04/13 00:15:25;;;;;;;13.77;8.88;;;;;;;6.16;66.61;101066.09;5080720;28;20040;-75
2022/04/13 00:17:50;;;;;;;14.73;10.27;;;;;;;6.02;66.50;101075.25;5081369;28;20533;-74
2022/04/13 00:20:15;;;;;;;12.20;9.05;;;;;;;6.01;66.36;101083.88;5080312;28;20273;-74
2022/04/13 00:22:47;;;;;;;16.20;10.55;;;;;;;5.87;66.34;101079.09;5080744;28;20514;-74
2022/04/13 00:25:13;;;;;;;12.32;9.43;;;;;;;6.11;65.10;101080.69;5078705;27;20055;-75
2022/04/13 00:27:38;;;;;;;14.77;10.15;;;;;;;6.25;64.66;101083.69;5080116;28;20491;-75
2022/04/13 00:30:04;;;;;;;16.40;9.60;;;;;;;6.28;64.45;101082.06;5080121;28;20032;-74
2022/04/13 00:32:30;;;;;;;14.50;9.68;;;;;;;6.09;65.21;101072.84;5080159;28;20039;-75
2022/04/13 00:34:57;;;;;;;13.00;9.95;;;;;;;6.28;65.41;101087.28;5082175;28;20066;-74
2022/04/13 00:37:23;;;;;;;17.15;10.63;;;;;;;6.26;65.33;101091.56;5081280;28;20060;-76
2022/04/13 00:41:13;;;;;;;15.80;10.25;;;;;;;6.23;66.13;101078.47;4738113;27;8430373;-74
2022/04/13 00:43:38;;;;;;;21.17;11.00;;;;;;;6.54;65.39;101080.19;5022609;28;20058;-76
2022/04/13 00:46:04;;;;;;;16.10;11.10;;;;;;;6.75;64.88;101072.06;5021979;28;20049;-74
2022/04/13 00:48:36;;;;;;;21.77;10.77;;;;;;;6.78;65.51;101063.41;5020481;28;20088;-74
2022/04/13 00:51:02;;;;;;;16.05;9.70;;;;;;;6.94;65.03;101072.53;5022501;28;20063;-74
2022/04/13 00:53:30;;;;;;;14.57;8.85;;;;;;;6.97;64.47;101059.56;5021546;28;20033;-74
2022/04/13 00:55:58;;;;;;;15.73;9.98;;;;;;;6.62;63.54;101071.69;5022451;28;20126;-75
2022/04/13 00:58:29;;;;;;;14.68;9.60;;;;;;;6.58;63.51;101060.31;5020316;28;20050;-74
2022/04/13 01:00:55;;;;;;;12.77;9.20;;;;;;;7.00;62.49;101067.47;5020231;28;20077;-74
2022/04/13 01:03:24;;;;;;;12.10;9.77;;;;;;;6.93;61.99;101071.66;5023082;28;20106;-74
2022/04/13 01:05:51;;;;;;;12.98;9.38;;;;;;;6.86;62.25;101067.13;5021521;28;21118;-74
2022/04/13 01:08:17;;;;;;;14.55;9.25;;;;;;;7.17;60.54;101066.16;5022946;28;20080;-74
2022/04/13 01:10:48;;;;;;;14.90;9.02;;;;;;;7.05;60.39;101059.75;5021827;28;20156;-74
2022/04/13 01:13:15;;;;;;;14.30;9.77;;;;;;;7.30;60.45;101067.31;5022452;28;20160;-74
2022/04/13 01:15:41;;;;;;;15.85;8.93;;;;;;;6.87;59.96;101060.19;5020393;28;20049;-75
2022/04/13 01:18:07;;;;;;;14.52;8.38;;;;;;;6.87;60.49;101063.66;5022354;28;20120;-75
2022/04/13 01:20:34;;;;;;;11.77;8.13;;;;;;;7.10;60.20;101063.38;5024251;28;20046;-76
2022/04/13 01:23:01;;;;;;;12.75;8.75;;;;;;;7.19;60.08;101068.81;5021137;28;20053;-74
2022/04/13 01:25:28;;;;;;;10.48;7.82;;;;;;;7.14;59.64;101071.31;5022955;28;20049;-74
2022/04/13 01:27:53;;;;;;;17.17;9.45;;;;;;;7.27;58.38;101053.31;5021451;28;20096;-75
2022/04/13 01:30:19;;;;;;;15.57;8.38;;;;;;;7.31;58.27;101066.50;5020720;28;20054;-75
2022/04/13 01:32:45;;;;;;;11.15;8.18;;;;;;;7.45;58.42;101068.56;5021986;28;20119;-74
2022/04/13 01:35:10;;;;;;;12.88;9.20;;;;;;;7.45;57.69;101072.03;5022510;28;20405;-73
2022/04/13 01:37:36;;;;;;;11.40;8.27;;;;;;;7.61;61.20;101073.28;5021617;28;20045;-74
2022/04/13 01:40:01;;;;;;;15.70;8.10;;;;;;;7.44;58.96;101061.53;5030675;28;20123;-73
2022/04/13 01:42:28;;;;;;;12.02;9.02;;;;;;;7.36;58.27;101074.44;5039873;28;20560;-76
2022/04/13 01:44:54;;;;;;;14.23;7.57;;;;;;;7.32;57.96;101088.25;5038996;28;20063;-76
2022/04/13 01:47:19;;;;;;;13.27;7.35;;;;;;;7.32;57.61;101073.47;5040124;28;20032;-74
2022/04/13 01:49:45;;;;;;;19.10;8.38;;;;;;;7.35;57.77;101070.03;5037470;28;20044;-75
2022/04/13 01:52:11;;;;;;;15.73;8.32;;;;;;;7.48;56.25;101086.88;5027782;28;20045;-74
2022/04/13 01:54:37;;;;;;;11.35;7.80;;;;;;;7.50;58.02;101074.75;5027076;28;20509;-74
2022/04/13 01:57:03;;;;;;;13.50;7.55;;;;;;;7.57;58.06;101089.72;5026681;28;20035;-74
2022/04/13 01:59:29;;;;;;;11.35;8.48;;;;;;;7.63;58.14;101078.50;5027868;28;20033;-74
2022/04/13 02:01:55;;;;;;;9.98;7.35;;;;;;;7.43;58.45;101086.78;5022312;28;20056;-74
2022/04/13 02:04:26;;;;;;;13.43;8.05;;;;;;;7.56;57.06;101090.53;5026992;28;20487;-74
2022/04/13 02:06:52;;;;;;;12.93;7.57;;;;;;;7.44;60.59;101083.31;5026712;28;20061;-74
2022/04/13 02:09:18;;;;;;;11.55;7.35;;;;;;;7.45;58.77;101086.81;5024433;28;20053;-76
2022/04/13 02:11:45;;;;;;;11.45;6.78;;;;;;;7.66;58.13;101083.84;5024799;28;20032;-74
2022/04/13 02:14:11;;;;;;;17.92;9.30;;;;;;;7.45;56.11;101077.25;5025541;28;20065;-75
2022/04/13 02:16:36;;;;;;;10.13;7.40;;;;;;;7.17;55.57;101091.38;5026925;28;20434;-73
2022/04/13 02:19:03;;;;;;;15.52;7.68;;;;;;;7.57;56.24;101087.09;5028339;28;20576;-74
2022/04/13 02:21:30;;;;;;;19.00;8.27;;;;;;;7.67;54.95;101089.06;5029786;28;20037;-74
2022/04/13 02:23:56;;;;;;;18.10;7.93;;;;;;;7.22;56.87;101087.16;5025489;28;21251;-74
2022/04/13 02:26:22;;;;;;;11.52;7.63;;;;;;;7.30;57.92;101084.72;5027019;28;20092;-74
2022/04/13 02:28:48;;;;;;;16.27;8.73;;;;;;;7.28;56.67;101095.13;5027632;28;20053;-74
2022/04/13 02:31:14;;;;;;;14.35;7.97;;;;;;;7.45;57.93;101076.38;5026852;28;20119;-74
2022/04/13 02:33:39;;;;;;;15.48;8.60;;;;;;;7.29;56.25;101076.00;5028270;28;20500;-75
2022/04/13 02:36:07;;;;;;;12.75;9.68;;;;;;;7.43;56.38;101080.69;5026024;28;20029;-73
2022/04/13 02:38:33;;;;;;;18.15;8.27;;;;;;;7.51;58.57;101087.81;5029599;28;20036;-73
2022/04/13 02:40:59;;;;;;;14.70;8.63;;;;;;;7.14;57.87;101093.88;5027490;28;20061;-74
2022/04/13 02:43:27;;;;;;;10.90;8.48;;;;;;;7.22;58.09;101094.09;5029028;28;20049;-73
2022/04/13 02:45:53;;;;;;;23.98;8.75;;;;;;;7.15;58.25;101083.50;5023492;28;20058;-74
2022/04/13 02:48:18;;;;;;;9.85;7.57;;;;;;;7.04;58.21;101090.16;5018095;28;20126;-74
2022/04/13 02:50:44;;;;;;;10.80;8.13;;;;;;;7.12;57.64;101078.22;5027291;28;20037;-74
2022/04/13 02:53:09;;;;;;;20.20;8.65;;;;;;;7.15;56.69;101088.72;5024976;28;20049;-75
2022/04/13 02:55:35;;;;;;;11.68;8.02;;;;;;;7.21;56.82;101087.09;5024689;28;20404;-74
2022/04/13 02:58:00;;;;;;;13.88;8.93;;;;;;;7.30;58.22;101084.72;5026397;28;20048;-74
2022/04/13 03:00:26;;;;;;;12.88;7.43;;;;;;;7.31;57.39;101087.38;5023849;28;20061;-74
2022/04/13 03:02:51;;;;;;;15.30;8.52;;;;;;;7.21;58.20;101079.25;5024986;28;20031;-74
2022/04/13 03:05:17;;;;;;;11.60;8.20;;;;;;;6.88;58.00;101096.75;5026377;28;20060;-75
2022/04/13 03:07:42;;;;;;;10.60;8.05;;;;;;;6.89;58.81;101090.66;5027357;28;20495;-74
2022/04/13 03:10:08;;;;;;;16.55;9.20;;;;;;;6.74;57.76;101091.16;5026246;28;20538;-74
2022/04/13 03:12:34;;;;;;;13.27;8.10;;;;;;;7.04;58.34;101094.50;5029133;28;20124;-74
2022/04/13 03:15:01;;;;;;;14.95;8.30;;;;;;;7.09;57.90;101103.34;5031128;28;20037;-73
2022/04/13 03:17:27;;;;;;;10.57;8.43;;;;;;;6.80;58.71;101111.28;5027197;28;20052;-74
2022/04/13 03:19:53;;;;;;;11.20;7.32;;;;;;;6.76;57.28;101110.31;5027782;28;20473;-74
2022/04/13 03:22:22;;;;;;;12.65;7.72;;;;;;;7.03;60.76;101111.03;5026372;28;20078;-74
2022/04/13 03:24:47;;;;;;;11.05;8.13;;;;;;;7.06;62.13;101104.16;5025326;28;20124;-74
2022/04/13 03:27:13;;;;;;;18.05;9.75;;;;;;;7.15;60.34;101117.44;5027870;28;20045;-75
2022/04/13 03:29:38;;;;;;;12.65;8.10;;;;;;;7.17;61.73;101107.03;5031212;28;20029;-74
2022/04/13 03:32:05;;;;;;;17.73;8.15;;;;;;;6.90;61.67;101117.63;5023352;28;20045;-74
2022/04/13 03:34:30;;;;;;;13.18;7.95;;;;;;;6.61;60.13;101127.28;5029962;28;20049;-74
2022/04/13 03:36:57;;;;;;;13.10;8.15;;;;;;;6.53;58.06;101130.56;5029783;28;20903;-74
2022/04/13 03:39:23;;;;;;;10.15;7.53;;;;;;;6.49;60.92;101113.06;5022903;28;20049;-75
2022/04/13 03:41:49;;;;;;;13.68;9.43;;;;;;;6.71;58.14;101129.31;5024268;28;20559;-76
2022/04/13 03:44:14;;;;;;;10.95;8.18;;;;;;;6.65;59.75;101134.34;5025918;28;20041;-75
2022/04/13 03:46:46;;;;;;;13.20;6.63;;;;;;;6.68;59.98;101114.47;5024878;28;22857;-74
2022/04/13 03:49:12;;;;;;;17.20;8.82;;;;;;;6.75;61.86;101120.72;5027810;28;20595;-74
2022/04/13 03:51:37;;;;;;;19.52;9.73;;;;;;;6.44;62.63;101122.50;5026476;28;20065;-74
2022/04/13 03:54:03;;;;;;;15.40;8.95;;;;;;;6.29;62.64;101142.91;5025453;28;20556;-75
2022/04/13 03:56:29;;;;;;;13.52;8.63;;;;;;;6.15;62.13;101147.69;5027633;28;20040;-74
2022/04/13 03:58:59;;;;;;;17.92;9.95;;;;;;;6.07;64.09;101149.19;5028211;28;20049;-75
2022/04/13 04:01:25;;;;;;;13.05;9.10;;;;;;;6.09;64.62;101145.81;5025615;28;20077;-74
2022/04/13 04:03:51;;;;;;;13.95;9.20;;;;;;;6.13;64.80;101145.06;5026099;28;20102;-73
2022/04/13 04:06:17;;;;;;;16.33;9.50;;;;;;;5.73;65.96;101153.31;5028306;28;20049;-74
2022/04/13 04:08:42;;;;;;;17.90;11.63;;;;;;;5.91;67.24;101159.09;5024933;28;20028;-74
2022/04/13 04:11:08;;;;;;;19.25;11.30;;;;;;;6.09;66.32;101161.44;5022910;28;20045;-74
2022/04/13 04:13:33;;;;;;;18.00;12.07;;;;;;;5.92;65.88;101152.16;5027082;28;20042;-77
2022/04/13 04:16:00;;;;;;;20.00;9.60;;;;;;;5.63;66.82;101146.94;5006710;28;20060;-76
2022/04/13 04:18:25;;;;;;;17.63;10.63;;;;;;;5.87;65.97;101169.38;5026203;28;20855;-74
2022/04/13 04:20:51;;;;;;;29.55;12.07;;;;;;;5.71;66.70;101168.00;5024454;28;20051;-76
2022/04/13 04:23:17;;;;;;;16.38;11.02;;;;;;;5.88;65.81;101165.97;5025153;28;20071;-74
2022/04/13 04:25:42;;;;;;;29.02;12.43;;;;;;;5.80;66.66;101165.69;5026620;28;20478;-73
2022/04/13 04:28:11;;;;;;;20.10;10.90;;;;;;;5.57;68.16;101165.00;5024334;28;20084;-75
2022/04/13 04:30:40;;;;;;;15.57;11.02;;;;;;;5.70;66.76;101181.88;5027457;28;20053;-76
2022/04/13 04:33:06;;;;;;;21.55;12.77;;;;;;;5.75;66.28;101177.69;5026936;28;20068;-74
2022/04/13 04:35:33;;;;;;;19.20;10.68;;;;;;;5.55;65.68;101179.66;5026917;28;20056;-77
2022/04/13 04:37:59;;;;;;;20.23;9.95;;;;;;;5.41;65.09;101184.41;5022812;28;20128;-74
2022/04/13 04:41:23;;;;;;;29.40;10.18;;;;;;;5.66;64.22;101182.59;4791270;27;8316656;-73
2022/04/13 04:43:48;;;;;;;20.65;11.07;;;;;;;5.43;65.16;101197.47;5062968;28;20064;-75
2022/04/13 04:46:20;;;;;;;15.93;10.40;;;;;;;5.68;64.32;101187.03;5062479;28;20053;-74
2022/04/13 04:48:46;;;;;;;15.88;8.82;;;;;;;5.97;62.78;101207.03;5065180;28;20051;-73
2022/04/13 04:51:12;;;;;;;26.85;10.63;;;;;;;5.82;63.45;101194.41;5062339;28;20029;-74
2022/04/13 04:53:38;;;;;;;17.50;11.52;;;;;;;5.93;62.34;101213.88;5067467;28;20032;-74
2022/04/13 04:56:04;;;;;;;13.07;8.90;;;;;;;6.08;62.90;101201.34;5063722;28;20046;-74
2022/04/13 04:58:29;;;;;;;18.55;11.00;;;;;;;6.08;62.66;101208.28;5062630;28;20072;-74
2022/04/13 05:00:55;;;;;;;15.98;9.32;;;;;;;6.06;62.15;101213.47;5059148;28;20063;-74
2022/04/13 05:03:20;;;;;;;18.05;10.32;;;;;;;6.51;60.82;101214.81;5067212;28;20051;-76
2022/04/13 05:05:46;;;;;;;24.70;11.48;;;;;;;6.55;60.13;101212.34;5066319;28;20032;-75
2022/04/13 05:08:13;;;;;;;12.50;9.55;;;;;;;6.53;60.77;101223.53;5065215;28;20535;-75
2022/04/13 05:10:39;;;;;;;15.27;10.10;;;;;;;6.65;60.66;101213.47;5065077;28;20155;-74
2022/04/13 05:13:05;;;;;;;20.15;13.48;;;;;;;6.91;61.26;101219.44;5064269;28;20048;-73
2022/04/13 05:15:31;;;;;;;17.92;10.75;;;;;;;6.99;59.49;101211.81;5062376;28;20049;-75
2022/04/13 05:17:56;;;;;;;17.35;10.27;;;;;;;7.38;58.36;101226.78;5065448;28;20033;-74
2022/04/13 05:20:22;;;;;;;14.18;9.25;;;;;;;7.85;56.76;101221.84;5062511;28;20102;-74
2022/04/13 05:22:47;;;;;;;28.38;11.10;;;;;;;8.36;57.43;101205.59;5061507;28;20051;-76
2022/04/13 05:25:15;;;;;;;17.25;9.15;;;;;;;9.02;54.27;101222.69;5062608;28;20115;-76
2022/04/13 05:27:41;;;;;;;14.95;10.25;;;;;;;8.34;55.13;101211.66;5061417;28;20080;-74
2022/04/13 05:30:08;;;;;;;12.32;9.18;;;;;;;8.08;53.77;101219.78;5061874;28;20147;-74
2022/04/13 05:35:07;;;;;;;16.83;9.75;;;;;;;8.77;52.76;101205.59;4756833;27;8325631;-73
2022/04/13 05:37:32;;;;;;;17.20;9.77;;;;;;;10.01;51.68;101208.66;5041226;28;20057;-73
2022/04/13 05:41:23;;;;;;;19.98;10.30;;;;;;;9.54;52.27;101220.13;4734331;27;8361477;-73
2022/04/13 05:43:49;;;;;;;13.88;10.55;;;;;;;9.97;51.67;101205.09;4992114;28;20050;-74
2022/04/13 05:46:14;;;;;;;24.88;10.57;;;;;;;10.20;50.90;101212.44;5002210;28;20072;-74
2022/04/13 05:48:40;;;;;;;14.75;9.25;;;;;;;10.07;48.97;101214.88;5008016;28;20045;-78
2022/04/13 05:51:05;;;;;;;12.63;9.82;;;;;;;10.34;50.81;101222.28;5010716;28;20037;-74
2022/04/13 05:53:31;;;;;;;13.27;10.05;;;;;;;10.30;48.54;101219.59;5013780;28;20030;-74
2022/04/13 05:55:57;;;;;;;14.38;8.70;;;;;;;9.98;48.72;101226.97;5010022;28;20038;-74
2022/04/13 05:58:26;;;;;;;14.88;8.77;;;;;;;9.36;49.52;101225.94;5004777;28;20044;-74
2022/04/13 06:00:53;;;;;;;11.75;9.45;;;;;;;9.36;51.11;101220.69;5003918;28;20054;-73
2022/04/13 06:03:19;;;;;;;19.85;9.40;;;;;;;9.92;50.70;101226.00;5010435;28;20061;-76
2022/04/13 06:05:45;;;;;;;15.32;9.70;;;;;;;9.88;50.50;101223.31;5011624;28;20042;-72
2022/04/13 06:08:12;;;;;;;15.75;8.63;;;;;;;9.86;49.75;101223.31;5012942;28;20144;-73
2022/04/13 06:10:38;;;;;;;14.25;9.55;;;;;;;9.72;50.98;101228.31;5015933;28;20092;-72
2022/04/13 06:13:03;;;;;;;17.33;10.02;;;;;;;9.85;49.42;101232.00;5008962;28;20042;-71
2022/04/13 06:15:29;;;;;;;17.55;9.93;;;;;;;10.69;47.92;101237.63;5014836;28;20050;-74
2022/04/13 06:17:56;;;;;;;18.88;11.73;;;;;;;10.03;49.74;101228.78;5013679;28;20030;-73
2022/04/13 06:20:22;;;;;;;12.20;8.82;;;;;;;9.64;50.09;101236.91;5010861;28;20061;-73
2022/04/13 06:22:48;;;;;;;15.93;9.88;;;;;;;9.92;49.55;101228.63;5009487;28;20081;-72
2022/04/13 06:25:14;;;;;;;10.88;8.25;;;;;;;10.25;48.66;101226.50;5010468;28;20157;-73
2022/04/13 06:27:44;;;;;;;19.02;10.90;;;;;;;10.30;46.74;101217.88;5009432;28;20053;-73
2022/04/13 06:30:11;;;;;;;21.10;9.30;;;;;;;10.66;46.40;101223.59;5008440;28;20037;-73
2022/04/13 06:32:38;;;;;;;19.20;9.95;;;;;;;10.35;46.96;101213.56;5008644;28;20030;-72
2022/04/13 06:35:06;;;;;;;11.52;7.20;;;;;;;9.89;48.16;101211.97;5013074;28;20045;-73
2022/04/13 06:37:32;;;;;;;13.10;8.27;;;;;;;10.46;45.11;101234.69;5010581;28;20041;-75
2022/04/13 06:39:57;;;;;;;13.25;9.00;;;;;;;10.21;46.14;101227.28;5019446;28;20530;-74
2022/04/13 06:42:23;;;;;;;14.00;7.53;;;;;;;10.20;46.62;101228.16;5029398;28;20076;-73
2022/04/13 06:44:52;;;;;;;13.52;7.90;;;;;;;9.94;46.94;101228.66;5031593;28;20112;-73
2022/04/13 06:47:18;;;;;;;13.30;8.23;;;;;;;10.20;47.20;101222.94;5031117;28;20060;-73
2022/04/13 06:49:47;;;;;;;11.48;7.18;;;;;;;10.32;46.00;101223.13;5032187;28;20124;-74
2022/04/13 06:52:13;;;;;;;15.27;7.72;;;;;;;10.32;47.39;101216.16;5019595;28;20056;-72
2022/04/13 06:54:40;;;;;;;17.33;11.10;;;;;;;10.39;46.82;101230.22;5017529;28;20045;-73
2022/04/13 06:57:06;;;;;;;11.32;7.25;;;;;;;10.20;46.02;101220.31;5013455;28;20456;-74
2022/04/13 06:59:32;;;;;;;9.70;7.15;;;;;;;10.44;45.13;101220.69;5020706;28;20032;-74
2022/04/13 07:01:57;;;;;;;8.82;6.78;;;;;;;10.44;45.49;101217.16;5015830;28;20512;-71
2022/04/13 07:04:22;;;;;;;7.53;5.20;;;;;;;10.30;45.07;101210.00;5016221;28;20504;-73
2022/04/13 07:06:48;;;;;;;11.75;5.57;;;;;;;10.28;45.51;101219.59;5017557;28;20061;-74
2022/04/13 07:09:13;;;;;;;20.52;6.68;;;;;;;10.12;45.37;101222.81;5019002;28;20049;-75
2022/04/13 07:11:39;;;;;;;8.40;4.45;;;;;;;10.13;44.59;101214.94;5017597;28;20029;-73
2022/04/13 07:14:05;;;;;;;11.38;6.22;;;;;;;10.16;45.30;101224.63;5018683;28;20044;-73
2022/04/13 07:16:30;;;;;;;14.02;6.47;;;;;;;10.34;43.34;101224.91;5018328;28;20042;-73
2022/04/13 07:18:56;;;;;;;11.20;5.47;;;;;;;10.17;44.14;101223.75;5017018;28;20065;-72
2022/04/13 07:21:21;;;;;;;5.88;4.20;;;;;;;10.09;43.54;101220.13;5014829;28;20477;-74
2022/04/13 07:23:47;;;;;;;6.72;4.38;;;;;;;10.05;42.76;101220.97;5019941;28;20029;-72
2022/04/13 07:26:12;;;;;;;9.35;5.00;;;;;;;10.23;42.37;101218.63;5018043;28;20053;-72
2022/04/13 07:28:38;;;;;;;9.25;4.70;;;;;;;10.32;41.86;101228.38;5018271;28;20041;-72
2022/04/13 07:31:04;;;;;;;9.73;5.07;;;;;;;10.24;42.35;101227.38;5018232;28;20049;-73
2022/04/13 07:33:30;;;;;;;8.77;4.85;;;;;;;10.52;41.38;101218.16;5017473;28;20511;-72
2022/04/13 07:35:55;;;;;;;4.90;3.95;;;;;;;10.31;40.84;101227.50;5018566;28;20038;-75
2022/04/13 07:38:21;;;;;;;6.18;3.67;;;;;;;10.34;39.77;101221.41;5016093;28;20069;-73
2022/04/13 07:41:23;;;;;;;11.90;4.07;;;;;;;10.19;40.45;101219.44;4740896;27;8502199;-71
2022/04/13 07:43:49;;;;;;;9.52;4.55;;;;;;;10.54;39.49;101219.06;5014984;28;20053;-71
2022/04/13 07:46:15;;;;;;;7.72;4.30;;;;;;;10.34;39.89;101230.16;5013851;28;20071;-72
2022/04/13 07:48:41;;;;;;;11.32;4.00;;;;;;;10.49;39.92;101218.13;5014108;28;20133;-74
2022/04/13 07:51:06;;;;;;;6.13;4.13;;;;;;;10.67;37.82;101222.72;4997966;28;20183;-72
2022/04/13 07:53:32;;;;;;;7.45;4.45;;;;;;;10.88;39.00;101209.84;5016037;28;20474;-72
2022/04/13 07:55:57;;;;;;;9.43;3.85;;;;;;;11.15;39.10;101209.28;5032457;28;20060;-72
2022/04/13 07:58:23;;;;;;;9.02;4.03;;;;;;;11.04;38.54;101221.41;5034566;28;20056;-73
2022/04/13 08:00:48;;;;;;;10.10;3.95;;;;;;;10.65;38.32;101200.81;5033540;28;20040;-72
2022/04/13 08:03:15;;;;;;;10.18;4.32;;;;;;;10.74;38.94;101211.44;5034289;28;20064;-72
2022/04/13 08:05:40;;;;;;;6.03;3.55;;;;;;;10.63;38.65;101202.53;5034622;28;20041;-72
2022/04/13 08:08:06;;;;;;;6.93;4.50;;;;;;;10.83;37.82;101200.16;5033940;28;20091;-73
2022/04/13 08:10:32;;;;;;;10.93;4.18;;;;;;;11.20;39.34;101204.94;5034960;28;20285;-72
2022/04/13 08:12:58;;;;;;;6.22;4.32;;;;;;;11.02;38.62;101217.00;5033389;28;20076;-72
2022/04/13 08:15:24;;;;;;;10.07;4.28;;;;;;;10.83;39.24;101203.66;5035642;28;20080;-72
2022/04/13 08:17:50;;;;;;;6.93;3.67;;;;;;;10.93;39.32;101195.06;5035209;28;20041;-72
2022/04/13 08:20:15;;;;;;;6.85;3.78;;;;;;;10.96;37.31;101208.22;5033937;28;20045;-75
2022/04/13 08:22:49;;;;;;;11.88;4.60;;;;;;;11.19;38.22;101203.22;5033193;28;20481;-73
2022/04/13 08:25:15;;;;;;;10.55;4.28;;;;;;;11.07;37.01;101204.81;5028627;28;20065;-71
2022/04/13 08:27:41;;;;;;;11.30;3.65;;;;;;;11.23;37.49;101201.47;5031381;28;20037;-72
2022/04/13 08:30:07;;;;;;;6.25;3.38;;;;;;;11.49;37.31;101199.09;5032928;28;20033;-71
2022/04/13 08:32:33;;;;;;;8.27;4.40;;;;;;;11.27;36.42;101208.53;5034088;28;20439;-72
2022/04/13 08:34:58;;;;;;;8.32;4.40;;;;;;;10.95;39.07;101189.78;5033007;28;20049;-73
2022/04/13 08:37:27;;;;;;;13.43;4.82;;;;;;;11.22;36.94;101197.09;5034369;28;20447;-72
2022/04/13 08:41:51;;;;;;;7.45;3.17;;;;;;;11.39;37.39;101192.00;4768370;27;8335240;-74
2022/04/13 08:44:25;;;;;;;14.98;4.82;;;;;;;11.42;37.97;101181.50;5050855;28;20045;-73
2022/04/13 08:46:56;;;;;;;8.48;4.20;;;;;;;11.57;37.07;101179.03;5057125;28;20097;-73
2022/04/13 08:49:21;;;;;;;18.00;4.20;;;;;;;11.73;37.03;101187.91;5058890;28;20051;-73
2022/04/13 08:51:49;;;;;;;9.48;4.78;;;;;;;11.86;36.38;101174.84;5055324;28;20041;-73
2022/04/13 08:54:30;;;;;;;11.73;4.38;;;;;;;11.74;37.46;101171.25;5056063;28;20051;-74
2022/04/13 08:56:57;;;;;;;6.78;4.13;;;;;;;11.84;36.07;101159.06;5058362;28;20029;-74
2022/04/13 08:59:51;;;;;;;7.28;3.65;;;;;;;11.95;36.24;101160.03;5059651;28;20028;-76
2022/04/13 09:02:43;;;;;;;6.07;4.35;;;;;;;12.19;36.68;101161.94;5055332;28;20052;-73
2022/04/13 09:05:12;;;;;;;10.40;3.88;;;;;;;12.40;34.96;101157.66;5055062;28;20556;-72
2022/04/13 09:07:39;;;;;;;5.95;3.67;;;;;;;12.35;34.69;101141.84;5059138;28;20530;-72
2022/04/13 09:10:10;;;;;;;7.18;3.70;;;;;;;12.56;34.49;101145.44;5060574;28;20052;-73
2022/04/13 09:12:36;;;;;;;8.93;3.63;;;;;;;12.53;35.34;101127.88;5058285;28;20057;-76
2022/04/13 09:15:03;;;;;;;6.93;3.80;;;;;;;12.46;35.70;101141.91;5057693;28;20677;-75
2022/04/13 09:17:29;;;;;;;8.98;4.45;;;;;;;12.71;35.64;101136.69;5057585;28;20070;-73
2022/04/13 09:19:56;;;;;;;8.93;3.88;;;;;;;12.48;35.17;101116.47;5059645;28;20539;-73
2022/04/13 09:22:23;;;;;;;9.13;3.70;;;;;;;12.52;34.67;101126.09;5056933;28;20037;-74
2022/04/13 09:24:50;;;;;;;11.95;4.03;;;;;;;12.74;35.96;101121.81;5058343;28;20076;-73
2022/04/13 09:27:16;;;;;;;8.45;4.13;;;;;;;12.60;34.51;101121.75;5056393;28;20062;-72
2022/04/13 09:29:42;;;;;;;9.23;3.58;;;;;;;12.42;34.46;101119.06;5059310;28;20028;-75
2022/04/13 09:32:08;;;;;;;6.38;3.38;;;;;;;12.86;34.94;101120.94;5055274;28;20044;-73
2022/04/13 09:34:34;;;;;;;4.70;3.30;;;;;;;12.93;35.54;101112.19;5059457;28;20045;-73
2022/04/13 09:37:00;;;;;;;6.10;4.00;;;;;;;12.79;34.41;101108.66;5055992;28;23096;-74
2022/04/13 09:41:47;;;;;;;10.60;4.05;;;;;;;13.32;35.58;101113.09;4718811;27;8343625;-73
2022/04/13 09:44:15;;;;;;;9.95;4.25;;;;;;;13.37;34.63;101110.47;5003187;28;20092;-74
2022/04/13 09:46:42;;;;;;;5.82;4.00;;;;;;;13.47;35.77;101117.50;5004081;28;20668;-72
2022/04/13 09:49:18;;;;;;;7.80;4.47;;;;;;;13.28;33.40;101104.34;5004405;28;20071;-74
2022/04/13 09:51:50;;;;;;;6.88;3.67;;;;;;;13.20;33.85;101116.59;5002983;28;20062;-75
2022/04/13 09:54:16;;;;;;;9.93;5.10;;;;;;;13.97;35.51;101095.44;5004315;28;20172;-72
2022/04/13 09:56:49;;;;;;;6.32;3.83;;;;;;;13.97;33.09;101095.44;5005187;28;20065;-72
2022/04/13 09:59:28;;;;;;;8.88;4.80;;;;;;;14.59;33.56;101098.75;5005974;28;20046;-74
2022/04/13 10:01:54;;;;;;;7.13;4.65;;;;;;;14.38;33.15;101094.41;5003069;28;20072;-72
2022/04/13 10:04:28;;;;;;;6.82;4.25;;;;;;;14.07;33.98;101091.91;5003900;28;20053;-72
2022/04/13 10:06:54;;;;;;;6.85;5.15;;;;;;;13.99;33.50;101109.50;5008683;28;20120;-75
2022/04/13 10:09:22;;;;;;;7.47;3.90;;;;;;;14.38;32.99;101102.34;5004466;28;20054;-74
2022/04/13 10:12:04;;;;;;;9.30;4.85;;;;;;;14.39;31.82;101097.94;5004299;28;20041;-74
2022/04/13 10:14:30;;;;;;;5.82;3.85;;;;;;;14.21;32.04;101104.16;4985141;28;20046;-71
2022/04/13 10:17:09;;;;;;;10.30;3.92;;;;;;;14.78;35.24;101097.75;4994977;28;20154;-72
2022/04/13 10:19:37;;;;;;;13.38;4.13;;;;;;;14.75;31.28;101091.63;5002921;28;20516;-73
2022/04/13 10:22:03;;;;;;;8.88;4.22;;;;;;;15.19;31.20;101108.91;5002599;28;20065;-74
2022/04/13 10:24:33;;;;;;;5.85;4.03;;;;;;;15.75;31.02;101094.31;5001221;28;20537;-73
2022/04/13 10:27:17;;;;;;;7.25;3.95;;;;;;;15.68;33.50;101099.66;5004701;28;20120;-71
2022/04/13 10:29:44;;;;;;;8.73;4.70;;;;;;;15.61;32.21;101091.75;5006224;28;20044;-72
2022/04/13 10:32:10;;;;;;;7.57;4.53;;;;;;;15.14;31.72;101108.06;5004500;28;20060;-74
2022/04/13 10:34:46;;;;;;;8.85;5.07;;;;;;;14.87;33.91;101101.22;5002393;28;20449;-72
2022/04/13 10:37:14;;;;;;;9.05;4.38;;;;;;;14.29;34.75;101078.63;5004074;28;20057;-72
2022/04/13 10:39:41;;;;;;;12.30;4.70;;;;;;;14.71;34.57;101077.53;5008067;28;20081;-74
2022/04/13 10:42:08;;;;;;;8.57;4.90;;;;;;;14.60;35.84;101071.44;5026528;28;20141;-75
2022/04/13 10:44:36;;;;;;;11.68;5.60;;;;;;;16.28;36.99;101072.56;5020751;28;20030;-72
2022/04/13 10:47:04;;;;;;;11.65;4.63;;;;;;;16.02;33.18;101069.31;5022322;28;20037;-73
2022/04/13 10:49:44;;;;;;;7.60;4.72;;;;;;;14.96;33.13;101072.97;5022321;28;20054;-71
2022/04/13 10:52:16;;;;;;;6.65;4.93;;;;;;;15.18;34.90;101072.78;5014871;28;20046;-74
2022/04/13 10:54:48;;;;;;;6.60;4.60;;;;;;;15.43;32.41;101064.63;5007780;28;20751;-72
2022/04/13 10:57:16;;;;;;;9.55;5.15;;;;;;;15.77;31.02;101067.84;5005861;28;20079;-74
2022/04/13 10:59:51;;;;;;;7.75;4.43;;;;;;;16.02;31.31;101071.09;5009276;28;20073;-72
2022/04/13 11:02:42;;;;;;;8.15;4.47;;;;;;;16.14;32.18;101059.47;5011855;28;20045;-73
2022/04/13 11:05:08;;;;;;;7.40;4.78;;;;;;;16.42;30.76;101055.56;5003857;28;20053;-74
2022/04/13 11:07:36;;;;;;;12.07;5.75;;;;;;;15.85;31.64;101060.72;5009345;28;20123;-70
2022/04/13 11:10:04;;;;;;;7.18;5.47;;;;;;;15.12;32.84;101041.09;5012473;28;20049;-72
2022/04/13 11:12:31;;;;;;;8.20;5.22;;;;;;;15.50;31.76;101043.41;5007414;28;20045;-75
2022/04/13 11:15:03;;;;;;;11.23;4.97;;;;;;;15.97;30.82;101031.44;5008093;28;20109;-71
2022/04/13 11:17:30;;;;;;;6.10;4.70;;;;;;;16.06;33.79;101034.84;5009449;28;21036;-72
2022/04/13 11:20:24;;;;;;;7.38;5.40;;;;;;;15.98;34.07;101025.25;5010494;28;20381;-71
2022/04/13 11:23:12;;;;;;;13.40;4.93;;;;;;;15.33;33.21;101032.97;5011801;28;20161;-72
2022/04/13 11:25:48;;;;;;;8.07;4.72;;;;;;;16.25;31.23;101026.66;5007697;28;20037;-71
2022/04/13 11:28:29;;;;;;;8.68;4.93;;;;;;;15.94;30.71;101022.66;5005825;28;20556;-72
2022/04/13 11:31:07;;;;;;;7.45;4.82;;;;;;;16.10;31.12;101034.78;5009189;28;20102;-72
2022/04/13 11:33:39;;;;;;;8.07;4.53;;;;;;;15.57;31.33;101026.59;5006697;28;20045;-73